createdAt,value
2018-03-30T07:35:59.981Z,11.29
2018-03-30T07:38:28.356Z,11.37
2018-03-30T07:40:56.821Z,11.43
2018-03-30T07:43:25.474Z,11.36
2018-03-30T07:45:53.967Z,11.40
2018-03-30T07:51:14.556Z,11.75
2018-03-30T08:02:33.235Z,11.88
2018-03-30T08:05:01.654Z,12.00
2018-03-30T08:07:30.340Z,12.07
2018-03-30T08:10:11.708Z,12.14
2018-03-30T08:12:40.163Z,12.14
2018-03-30T08:15:21.275Z,12.10
2018-03-30T08:17:49.631Z,12.24
2018-03-30T08:20:18.012Z,12.25
2018-03-30T08:22:46.381Z,12.24
2018-03-30T08:25:16.446Z,12.28
2018-03-30T08:27:44.801Z,12.29
2018-03-30T08:30:13.179Z,12.37
2018-03-30T08:32:41.543Z,12.39
2018-03-30T08:35:09.904Z,12.51
2018-03-30T08:37:38.267Z,12.65
2018-03-30T08:40:06.630Z,12.64
2018-03-30T08:42:40.913Z,12.79
2018-03-30T08:45:09.313Z,12.87
2018-03-30T08:47:37.711Z,12.90
2018-03-30T08:50:18.713Z,13.04
2018-03-30T08:52:47.098Z,13.16
2018-03-30T08:55:15.484Z,13.23
2018-03-30T08:57:43.877Z,13.30
2018-03-30T09:00:12.256Z,13.30
2018-03-30T09:02:40.633Z,13.29
2018-03-30T09:05:09.028Z,13.36
2018-03-30T09:07:37.516Z,13.46
2018-03-30T09:10:05.930Z,13.63
2018-03-30T09:12:34.370Z,13.74
2018-03-30T09:15:02.734Z,13.85
2018-03-30T09:17:31.090Z,13.86
2018-03-30T09:19:59.475Z,13.96
2018-03-30T09:22:27.893Z,14.10
2018-03-30T09:24:56.298Z,14.15
2018-03-30T09:27:24.676Z,14.31
2018-03-30T09:29:53.982Z,14.46
2018-03-30T09:32:22.349Z,14.60
2018-03-30T09:34:50.930Z,14.74
2018-03-30T09:37:19.318Z,14.86
2018-03-30T09:39:47.680Z,14.89
2018-03-30T09:42:16.049Z,14.93
2018-03-30T09:44:46.063Z,14.99
2018-03-30T09:47:14.437Z,15.26
2018-03-30T09:49:42.813Z,15.46
2018-03-30T09:52:11.401Z,15.52
2018-03-30T09:54:39.593Z,15.52
2018-03-30T09:57:07.735Z,15.56
2018-03-30T09:59:36.093Z,15.54
2018-03-30T10:02:04.436Z,15.49
2018-03-30T10:04:32.615Z,15.67
2018-03-30T10:07:00.813Z,15.78
2018-03-30T10:09:29.190Z,15.99
2018-03-30T10:11:57.542Z,15.97
2018-03-30T10:14:25.917Z,16.15
2018-03-30T10:16:54.303Z,16.07
2018-03-30T10:19:22.669Z,16.05
2018-03-30T10:21:51.048Z,16.27
2018-03-30T10:24:19.398Z,16.45
2018-03-30T10:26:47.769Z,16.56
2018-03-30T10:29:16.152Z,16.62
2018-03-30T10:31:44.512Z,16.42
2018-03-30T10:34:12.893Z,16.46
2018-03-30T10:36:41.308Z,16.44
2018-03-30T10:39:10.005Z,16.40
2018-03-30T10:41:38.397Z,16.47
2018-03-30T10:44:06.758Z,16.56
2018-03-30T10:46:35.139Z,16.57
2018-03-30T10:49:03.524Z,16.58
2018-03-30T10:51:31.901Z,16.67
2018-03-30T10:54:00.320Z,16.76
2018-03-30T10:56:28.697Z,16.74
2018-03-30T10:58:57.078Z,16.79
2018-03-30T11:01:25.464Z,16.84
2018-03-30T11:03:53.829Z,16.86
2018-03-30T11:06:22.193Z,16.92
2018-03-30T11:08:50.562Z,16.95
2018-03-30T11:11:18.953Z,17.02
2018-03-30T11:13:47.316Z,17.08
2018-03-30T11:16:15.757Z,17.14
2018-03-30T11:18:44.138Z,17.24
2018-03-30T11:21:12.517Z,17.39
2018-03-30T11:23:40.933Z,17.40
2018-03-30T11:26:09.304Z,17.50
2018-03-30T11:28:37.707Z,17.64
2018-03-30T11:31:06.056Z,17.75
2018-03-30T11:33:34.416Z,17.66
2018-03-30T11:36:02.783Z,17.71
2018-03-30T11:38:31.175Z,17.76
2018-03-30T11:40:59.531Z,17.78
2018-03-30T11:43:28.732Z,17.81
2018-03-30T11:48:50.751Z,17.94
2018-03-30T11:51:25.196Z,17.93
2018-03-30T11:53:53.932Z,18.02
2018-03-30T11:56:22.450Z,18.07
2018-03-30T11:58:50.825Z,18.12
2018-03-30T12:01:19.205Z,18.27
2018-03-30T12:03:47.585Z,18.51
2018-03-30T12:06:15.962Z,18.79
2018-03-30T12:08:44.340Z,18.99
2018-03-30T12:11:12.714Z,18.95
2018-03-30T12:13:41.102Z,18.92
2018-03-30T12:16:09.552Z,18.97
2018-03-30T12:18:37.952Z,19.00
2018-03-30T12:21:06.393Z,19.03
2018-03-30T12:23:34.775Z,19.04
2018-03-30T12:26:03.316Z,19.06
2018-03-30T12:28:31.727Z,19.07
2018-03-30T12:31:00.093Z,19.10
2018-03-30T12:33:28.459Z,19.10
2018-03-30T12:35:56.846Z,18.90
2018-03-30T12:38:25.220Z,18.77
2018-03-30T12:40:53.603Z,18.80
2018-03-30T12:43:21.971Z,18.90
2018-03-30T12:45:50.532Z,18.95
2018-03-30T12:48:18.910Z,18.88
2018-03-30T12:50:47.273Z,18.89
2018-03-30T12:53:15.640Z,18.87
2018-03-30T12:55:44.059Z,18.89
2018-03-30T12:58:12.445Z,19.01
2018-03-30T13:00:40.805Z,19.15
2018-03-30T13:03:09.182Z,19.15
2018-03-30T13:05:37.549Z,19.27
2018-03-30T13:08:05.945Z,19.36
2018-03-30T13:10:34.300Z,19.40
2018-03-30T13:13:02.677Z,19.33
2018-03-30T13:15:31.060Z,19.34
2018-03-30T13:17:59.450Z,19.37
2018-03-30T13:20:27.814Z,19.42
2018-03-30T13:22:56.184Z,19.53
2018-03-30T13:25:24.595Z,19.53
2018-03-30T13:27:52.957Z,19.53
2018-03-30T13:30:21.473Z,19.49
2018-03-30T13:32:49.829Z,19.61
2018-03-30T13:35:18.203Z,19.67
2018-03-30T13:37:46.830Z,19.67
2018-03-30T13:40:15.184Z,19.74
2018-03-30T13:42:43.563Z,19.88
2018-03-30T13:45:11.924Z,20.02
2018-03-30T13:47:40.298Z,20.07
2018-03-30T13:50:08.187Z,20.07
2018-03-30T13:52:40.863Z,20.03
2018-03-30T13:55:11.046Z,20.02
2018-03-30T13:57:45.798Z,20.04
2018-03-30T14:00:15.089Z,20.07
2018-03-30T14:02:43.099Z,20.06
2018-03-30T14:05:35.680Z,20.08
2018-03-30T14:08:05.234Z,20.16
2018-03-30T14:10:37.623Z,20.19
2018-03-30T14:13:06.914Z,20.28
2018-03-30T14:15:35.733Z,20.25
2018-03-30T14:18:08.147Z,20.31
2018-03-30T14:20:36.717Z,20.44
2018-03-30T14:23:05.446Z,20.51
2018-03-30T14:25:38.205Z,20.67
2018-03-30T14:28:09.750Z,20.74
2018-03-30T14:33:34.085Z,20.92
2018-03-30T14:36:05.822Z,20.96
2018-03-30T14:41:32.391Z,20.91
2018-03-30T14:44:00.962Z,20.94
2018-03-30T14:46:31.242Z,20.95
2018-03-30T14:49:01.051Z,21.07
2018-03-30T14:54:51.278Z,20.85
2018-03-30T14:57:49.917Z,20.86
2018-03-30T15:00:30.450Z,20.84
2018-03-30T15:02:58.668Z,20.59
2018-03-30T15:05:33.073Z,20.43
2018-03-30T15:08:08.532Z,20.36
2018-03-30T15:10:51.191Z,20.39
2018-03-30T15:13:20.989Z,20.41
2018-03-30T15:16:08.464Z,20.35
2018-03-30T15:18:38.812Z,20.30
2018-03-30T15:21:16.741Z,20.28
2018-03-30T15:23:48.044Z,20.29
2018-03-30T15:26:22.500Z,20.17
2018-03-30T15:28:51.296Z,20.03
2018-03-30T15:31:19.936Z,19.98
2018-03-30T15:33:57.040Z,19.86
2018-03-30T15:36:27.569Z,19.77
2018-03-30T15:38:55.925Z,19.73
2018-03-30T15:41:23.863Z,19.67
2018-03-30T15:43:52.534Z,19.62
2018-03-30T15:46:27.020Z,19.58
2018-03-30T15:48:54.898Z,19.53
2018-03-30T15:51:23.649Z,19.46
2018-03-30T15:53:50.979Z,19.40
2018-03-30T15:56:18.889Z,19.40
2018-03-30T16:01:40.553Z,19.38
2018-03-30T16:04:09.071Z,19.38
2018-03-30T16:06:37.469Z,19.36
2018-03-30T16:09:19.382Z,19.43
2018-03-30T16:11:48.592Z,19.44
2018-03-30T16:14:16.515Z,19.47
2018-03-30T16:16:44.441Z,19.44
2018-03-30T16:19:11.789Z,19.37
2018-03-30T16:21:39.108Z,19.29
2018-03-30T16:24:06.664Z,19.20
2018-03-30T16:26:34.008Z,19.12
2018-03-30T16:29:01.344Z,19.06
2018-03-30T16:31:28.677Z,18.94
2018-03-30T16:33:56.008Z,18.86
